臺北終端管制區 - 桃園掃描雷達席

METAR RCTP 200630Z 06021KT 9999 FEW012 BKN025 BKN100 20/14 Q1018 WS ALL RWY NOSIG RMK A3007=

站台狀態:Online
最後更新:2022-01-20 22:00:02